createdAt,value
2022-10-26T00:01:26.644Z,100.00
2022-10-26T00:04:28.282Z,100.00
2022-10-26T00:07:30.421Z,100.00
2022-10-26T00:10:34.956Z,100.00
2022-10-26T00:13:37.676Z,100.00
2022-10-26T00:16:39.221Z,100.00
2022-10-26T00:19:40.850Z,100.00
2022-10-26T00:22:42.451Z,100.00
2022-10-26T00:25:44.675Z,100.00
2022-10-26T00:28:46.232Z,100.00
2022-10-26T00:31:47.780Z,100.00
2022-10-26T00:34:49.293Z,100.00
2022-10-26T00:37:55.962Z,100.00
2022-10-26T00:44:42.900Z,100.00
2022-10-26T00:47:53.025Z,100.00
2022-10-26T00:50:58.488Z,100.00
2022-10-26T00:54:04.050Z,100.00
2022-10-26T00:57:06.435Z,100.00
2022-10-26T01:00:08.596Z,100.00
2022-10-26T01:03:11.253Z,100.00
2022-10-26T01:06:14.194Z,100.00
2022-10-26T01:09:17.800Z,100.00
2022-10-26T01:12:19.301Z,100.00
2022-10-26T01:15:27.409Z,100.00
2022-10-26T01:18:38.180Z,100.00
2022-10-26T01:22:02.138Z,100.00
2022-10-26T01:25:32.712Z,100.00
2022-10-26T01:28:58.677Z,100.00
2022-10-26T01:32:10.709Z,100.00
2022-10-26T01:35:28.990Z,100.00
2022-10-26T01:38:35.643Z,100.00
2022-10-26T01:41:49.911Z,100.00
2022-10-26T01:45:02.634Z,100.00
2022-10-26T01:48:04.591Z,100.00
2022-10-26T01:51:08.348Z,100.00
2022-10-26T01:54:10.573Z,100.00
2022-10-26T01:57:15.438Z,100.00
2022-10-26T02:00:17.235Z,100.00
2022-10-26T02:03:33.941Z,100.00
2022-10-26T02:07:08.217Z,100.00
2022-10-26T02:10:18.535Z,100.00
2022-10-26T02:13:44.617Z,100.00
2022-10-26T02:17:02.624Z,100.00
2022-10-26T02:20:08.759Z,100.00
2022-10-26T02:23:12.166Z,100.00
2022-10-26T02:26:18.124Z,100.00
2022-10-26T02:29:21.139Z,100.00
2022-10-26T02:32:25.882Z,100.00
2022-10-26T02:35:34.552Z,100.00
2022-10-26T02:38:39.432Z,100.00
2022-10-26T02:41:43.759Z,100.00
2022-10-26T02:44:51.405Z,100.00
2022-10-26T02:47:54.560Z,100.00
2022-10-26T02:51:18.298Z,100.00
2022-10-26T02:54:51.233Z,100.00
2022-10-26T02:57:58.236Z,100.00
2022-10-26T03:01:00.413Z,100.00
2022-10-26T03:04:02.174Z,100.00
2022-10-26T03:07:03.765Z,100.00
2022-10-26T03:10:05.826Z,100.00
2022-10-26T03:13:07.914Z,100.00
2022-10-26T03:16:09.624Z,100.00
2022-10-26T03:19:11.197Z,100.00
2022-10-26T03:22:12.728Z,100.00
2022-10-26T03:25:15.602Z,100.00
2022-10-26T03:28:17.141Z,100.00
2022-10-26T03:31:18.724Z,100.00
2022-10-26T03:34:21.043Z,100.00
2022-10-26T03:37:22.515Z,100.00
2022-10-26T03:40:24.121Z,100.00
2022-10-26T03:43:25.621Z,100.00
2022-10-26T03:46:27.129Z,100.00
2022-10-26T03:49:28.992Z,100.00
2022-10-26T03:52:30.507Z,100.00
2022-10-26T03:55:32.053Z,100.00
2022-10-26T03:58:33.613Z,100.00
2022-10-26T04:01:35.277Z,100.00
2022-10-26T04:04:36.917Z,100.00
2022-10-26T04:07:38.478Z,100.00
2022-10-26T04:10:40.057Z,100.00
2022-10-26T04:13:41.606Z,100.00
2022-10-26T04:16:43.165Z,100.00
2022-10-26T04:19:44.693Z,100.00
2022-10-26T04:22:46.252Z,100.00
2022-10-26T04:25:47.853Z,100.00
2022-10-26T04:28:49.407Z,100.00
2022-10-26T04:31:50.990Z,100.00
2022-10-26T04:34:54.350Z,100.00
2022-10-26T04:38:00.091Z,100.00
2022-10-26T04:41:01.787Z,100.00
2022-10-26T04:44:03.332Z,100.00
2022-10-26T04:47:04.884Z,100.00
2022-10-26T04:50:08.319Z,100.00
2022-10-26T04:53:10.571Z,100.00
2022-10-26T04:56:12.102Z,100.00
2022-10-26T04:59:13.629Z,100.00
2022-10-26T05:02:15.341Z,100.00
2022-10-26T05:05:17.010Z,100.00
2022-10-26T05:08:18.528Z,100.00
2022-10-26T05:11:20.032Z,100.00
2022-10-26T05:14:21.594Z,100.00
2022-10-26T05:17:23.145Z,100.00
2022-10-26T05:20:31.994Z,100.00
2022-10-26T05:23:33.532Z,100.00
2022-10-26T05:26:35.055Z,100.00
2022-10-26T05:29:36.610Z,100.00
2022-10-26T05:32:38.133Z,100.00
2022-10-26T05:35:40.287Z,100.00
2022-10-26T05:38:41.807Z,100.00
2022-10-26T05:41:43.321Z,100.00
2022-10-26T05:44:44.854Z,100.00
2022-10-26T05:47:47.126Z,100.00
2022-10-26T05:50:49.051Z,100.00
2022-10-26T05:53:54.290Z,100.00
2022-10-26T05:56:56.400Z,100.00
2022-10-26T05:59:58.333Z,100.00
2022-10-26T06:03:43.220Z,100.00
2022-10-26T06:06:47.147Z,100.00
2022-10-26T06:09:49.537Z,100.00
2022-10-26T06:12:51.654Z,100.00
2022-10-26T06:16:02.699Z,100.00
2022-10-26T06:19:19.177Z,100.00
2022-10-26T06:22:37.416Z,100.00
2022-10-26T06:26:01.789Z,100.00
2022-10-26T06:29:25.318Z,100.00
2022-10-26T06:32:27.978Z,100.00
2022-10-26T06:35:37.250Z,100.00
2022-10-26T06:38:41.390Z,100.00
2022-10-26T06:41:43.312Z,100.00
2022-10-26T06:44:45.292Z,100.00
2022-10-26T06:48:07.478Z,100.00
2022-10-26T06:51:14.696Z,100.00
2022-10-26T06:54:21.228Z,100.00
2022-10-26T06:57:24.705Z,100.00
2022-10-26T07:00:26.758Z,100.00
2022-10-26T07:03:28.412Z,100.00
2022-10-26T07:06:31.694Z,100.00
2022-10-26T07:09:34.885Z,100.00
2022-10-26T07:12:36.961Z,100.00
2022-10-26T07:15:40.561Z,100.00
2022-10-26T07:18:42.122Z,100.00
2022-10-26T07:21:43.627Z,100.00
2022-10-26T07:24:45.199Z,100.00
2022-10-26T07:27:47.322Z,100.00
2022-10-26T07:30:51.787Z,100.00
2022-10-26T07:33:57.682Z,100.00
2022-10-26T07:37:00.058Z,100.00
2022-10-26T07:40:05.672Z,100.00
2022-10-26T07:43:08.258Z,100.00
2022-10-26T07:46:09.769Z,100.00
2022-10-26T07:49:11.580Z,100.00
2022-10-26T07:52:13.099Z,100.00
2022-10-26T07:55:14.823Z,100.00
2022-10-26T07:58:16.550Z,100.00
2022-10-26T08:01:18.185Z,100.00
2022-10-26T08:04:19.841Z,100.00
2022-10-26T08:07:21.764Z,100.00
2022-10-26T08:10:23.337Z,100.00
2022-10-26T08:13:24.975Z,100.00
2022-10-26T08:16:26.590Z,100.00
2022-10-26T08:19:28.135Z,100.00
2022-10-26T08:22:30.732Z,100.00
2022-10-26T08:25:33.182Z,100.00
2022-10-26T08:28:34.743Z,100.00
2022-10-26T08:31:36.245Z,100.00
2022-10-26T08:34:37.810Z,100.00
2022-10-26T08:37:39.325Z,100.00
2022-10-26T08:40:42.950Z,100.00
2022-10-26T08:43:52.727Z,100.00
2022-10-26T08:47:07.043Z,100.00
2022-10-26T08:50:31.381Z,100.00
2022-10-26T08:53:47.934Z,100.00
2022-10-26T08:56:57.028Z,100.00
2022-10-26T08:59:58.767Z,100.00
2022-10-26T09:03:00.281Z,100.00
2022-10-26T09:06:04.456Z,100.00
2022-10-26T09:09:15.063Z,100.00
2022-10-26T09:12:31.671Z,100.00
2022-10-26T09:15:47.970Z,100.00
2022-10-26T09:18:49.459Z,100.00
2022-10-26T09:22:20.753Z,100.00
2022-10-26T09:25:24.551Z,100.00
2022-10-26T09:28:28.539Z,100.00
2022-10-26T09:31:38.422Z,100.00
2022-10-26T09:34:53.824Z,100.00
2022-10-26T09:38:00.880Z,100.00
2022-10-26T09:41:08.522Z,100.00
2022-10-26T09:44:36.321Z,100.00
2022-10-26T09:47:46.427Z,100.00
2022-10-26T09:50:49.931Z,99.03
2022-10-26T09:53:51.510Z,98.75
2022-10-26T09:56:56.808Z,97.40
2022-10-26T09:59:58.378Z,97.30
2022-10-26T10:03:00.075Z,96.86
2022-10-26T10:06:17.643Z,95.81
2022-10-26T10:09:24.671Z,96.05
2022-10-26T10:12:26.241Z,96.84
2022-10-26T10:15:27.762Z,94.84
2022-10-26T10:18:29.733Z,93.98
2022-10-26T10:21:39.673Z,93.73
2022-10-26T10:24:54.878Z,93.18
2022-10-26T10:27:56.435Z,93.40
2022-10-26T10:31:07.139Z,92.61
2022-10-26T10:34:17.966Z,91.50
2022-10-26T10:37:30.495Z,91.80
2022-10-26T10:40:32.362Z,91.34
2022-10-26T10:43:36.320Z,90.69
2022-10-26T10:46:38.069Z,90.88
2022-10-26T10:49:39.686Z,90.38
2022-10-26T10:52:42.393Z,90.15
2022-10-26T10:55:55.224Z,89.32
2022-10-26T10:59:38.339Z,88.53
2022-10-26T11:03:05.817Z,89.12
2022-10-26T11:06:20.442Z,87.65
2022-10-26T11:09:27.801Z,87.45
2022-10-26T11:12:47.195Z,87.72
2022-10-26T11:15:52.912Z,87.78
2022-10-26T11:19:03.098Z,88.00
2022-10-26T11:22:09.201Z,88.15
2022-10-26T11:25:18.984Z,86.52
2022-10-26T11:28:37.460Z,85.94
2022-10-26T11:31:47.410Z,84.79
2022-10-26T11:35:13.951Z,83.53
2022-10-26T11:38:46.680Z,84.40
2022-10-26T11:42:46.950Z,83.66
2022-10-26T11:46:03.539Z,84.00
2022-10-26T11:52:44.746Z,81.44
2022-10-26T11:55:50.086Z,81.50
2022-10-26T11:58:52.423Z,80.76
2022-10-26T12:02:26.256Z,79.31
2022-10-26T12:05:37.050Z,78.97
2022-10-26T12:09:07.443Z,79.16
2022-10-26T12:12:37.798Z,78.99
2022-10-26T12:16:04.752Z,78.26
2022-10-26T12:19:18.424Z,78.51
2022-10-26T12:22:23.500Z,77.68
2022-10-26T12:25:25.068Z,77.74
2022-10-26T12:28:41.266Z,77.75
2022-10-26T12:31:43.599Z,77.77
2022-10-26T12:34:45.052Z,77.06
2022-10-26T12:37:46.642Z,77.41
2022-10-26T12:40:49.352Z,77.67
2022-10-26T12:43:56.118Z,77.76
2022-10-26T12:46:57.636Z,77.65
2022-10-26T12:50:22.597Z,77.29
2022-10-26T12:53:26.045Z,78.22
2022-10-26T12:56:50.212Z,78.16
2022-10-26T12:59:54.485Z,77.56
2022-10-26T13:03:02.179Z,77.84
2022-10-26T13:06:28.427Z,76.89
2022-10-26T13:09:33.344Z,76.58
2022-10-26T13:12:53.676Z,76.16
2022-10-26T13:15:57.275Z,75.97
2022-10-26T13:19:00.043Z,75.41
2022-10-26T13:22:01.836Z,75.09
2022-10-26T13:25:07.020Z,74.28
2022-10-26T13:28:32.269Z,73.84
2022-10-26T13:31:34.381Z,74.24
2022-10-26T13:34:42.512Z,72.92
2022-10-26T13:37:50.759Z,73.01
2022-10-26T13:41:03.896Z,73.16
2022-10-26T13:44:18.306Z,72.04
2022-10-26T13:47:49.325Z,73.44
2022-10-26T13:50:54.809Z,73.03
2022-10-26T13:54:34.986Z,72.30
2022-10-26T13:57:42.159Z,73.83
2022-10-26T14:01:10.424Z,72.73
2022-10-26T14:04:26.521Z,73.93
2022-10-26T14:07:37.489Z,73.93
2022-10-26T14:10:42.234Z,74.09
2022-10-26T14:13:44.107Z,73.55
2022-10-26T14:16:47.017Z,74.39
2022-10-26T14:19:49.806Z,73.58
2022-10-26T14:22:52.341Z,73.82
2022-10-26T14:25:58.867Z,73.37
2022-10-26T14:29:02.021Z,73.07
2022-10-26T14:32:25.723Z,72.44
2022-10-26T14:35:32.690Z,72.93
2022-10-26T14:38:44.052Z,73.15
2022-10-26T14:41:45.730Z,73.72
2022-10-26T14:44:47.357Z,73.11
2022-10-26T14:47:50.332Z,73.46
2022-10-26T14:51:15.542Z,72.71
2022-10-26T14:54:22.348Z,72.40
2022-10-26T14:57:35.816Z,72.01
2022-10-26T15:00:37.441Z,72.22
2022-10-26T15:03:39.423Z,72.97
2022-10-26T15:06:43.432Z,72.59
2022-10-26T15:09:49.552Z,72.96
2022-10-26T15:12:51.106Z,73.64
2022-10-26T15:15:58.064Z,73.07
2022-10-26T15:19:08.656Z,73.41
2022-10-26T15:22:23.148Z,73.84
2022-10-26T15:25:29.115Z,74.45
2022-10-26T15:28:40.563Z,74.51
2022-10-26T15:31:42.113Z,75.84
2022-10-26T15:34:48.492Z,77.16
2022-10-26T15:37:52.517Z,78.11
2022-10-26T15:40:54.042Z,79.44
2022-10-26T15:43:57.853Z,80.03
2022-10-26T15:47:05.085Z,80.59
2022-10-26T15:50:13.197Z,81.50
2022-10-26T15:53:28.609Z,82.63
2022-10-26T15:56:31.585Z,82.69
2022-10-26T15:59:33.154Z,83.75
2022-10-26T16:02:37.332Z,83.84
2022-10-26T16:05:38.909Z,84.32
2022-10-26T16:08:40.608Z,84.75
2022-10-26T16:11:43.018Z,84.93
2022-10-26T16:15:04.257Z,85.68
2022-10-26T16:18:06.165Z,85.96
2022-10-26T16:21:12.525Z,86.22
2022-10-26T16:24:14.167Z,86.58
2022-10-26T16:27:15.790Z,86.89
2022-10-26T16:30:18.285Z,87.17
2022-10-26T16:33:19.857Z,87.29
2022-10-26T16:46:11.769Z,88.96
2022-10-26T16:57:36.725Z,89.51
2022-10-26T17:00:38.306Z,89.46
2022-10-26T17:03:39.845Z,89.73
2022-10-26T17:06:41.797Z,90.14
2022-10-26T17:09:46.509Z,90.27
2022-10-26T17:12:48.416Z,90.60
2022-10-26T17:15:50.503Z,91.22
2022-10-26T17:18:53.028Z,91.72
2022-10-26T17:21:54.618Z,91.74
2022-10-26T17:24:56.377Z,91.88
2022-10-26T17:27:58.700Z,92.16
2022-10-26T17:31:12.221Z,92.77
2022-10-26T17:34:13.758Z,92.99
2022-10-26T17:37:15.401Z,92.82
2022-10-26T17:40:17.358Z,93.40
2022-10-26T17:43:18.912Z,93.83
2022-10-26T17:46:23.831Z,94.21
2022-10-26T17:49:27.968Z,94.58
2022-10-26T17:52:31.222Z,94.49
2022-10-26T17:55:32.787Z,94.94
2022-10-26T17:58:35.073Z,95.11
2022-10-26T18:01:36.720Z,95.62
2022-10-26T18:04:38.369Z,95.99
2022-10-26T18:07:39.901Z,96.03
2022-10-26T18:10:48.304Z,96.21
2022-10-26T18:13:49.848Z,96.47
2022-10-26T18:16:51.433Z,97.00
2022-10-26T18:19:52.971Z,96.97
2022-10-26T18:22:55.933Z,97.19
2022-10-26T18:26:12.887Z,97.45
2022-10-26T18:29:14.913Z,97.73
2022-10-26T18:32:16.450Z,98.46
2022-10-26T18:35:18.734Z,98.08
2022-10-26T18:38:20.246Z,98.46
2022-10-26T18:41:23.375Z,99.07
2022-10-26T18:44:24.945Z,98.61
2022-10-26T18:47:28.954Z,99.18
2022-10-26T18:50:30.478Z,99.29
2022-10-26T18:53:33.408Z,99.38
2022-10-26T18:56:34.964Z,99.64
2022-10-26T18:59:36.496Z,99.81
2022-10-26T19:02:38.050Z,99.81
2022-10-26T19:05:41.249Z,99.85
2022-10-26T19:08:43.882Z,100.00
2022-10-26T19:11:45.970Z,100.00
2022-10-26T19:14:47.572Z,100.00
2022-10-26T19:17:49.161Z,100.00
2022-10-26T19:20:50.656Z,100.00
2022-10-26T19:23:54.761Z,100.00
2022-10-26T19:26:56.683Z,100.00
2022-10-26T19:29:59.054Z,100.00
2022-10-26T19:33:00.606Z,100.00
2022-10-26T19:36:04.941Z,100.00
2022-10-26T19:39:07.463Z,100.00
2022-10-26T19:42:09.020Z,100.00
2022-10-26T19:45:10.821Z,100.00
2022-10-26T19:48:12.416Z,100.00
2022-10-26T19:51:14.108Z,100.00
2022-10-26T19:54:15.677Z,100.00
2022-10-26T19:57:17.163Z,100.00
2022-10-26T20:00:18.979Z,100.00
2022-10-26T20:03:23.270Z,100.00
2022-10-26T20:06:24.913Z,100.00
2022-10-26T20:09:27.270Z,100.00
2022-10-26T20:12:28.833Z,100.00
2022-10-26T20:15:30.362Z,100.00
2022-10-26T20:18:31.899Z,100.00
2022-10-26T20:21:33.502Z,100.00
2022-10-26T20:24:34.989Z,100.00
2022-10-26T20:27:41.365Z,100.00
2022-10-26T20:30:43.957Z,100.00
2022-10-26T20:33:48.609Z,100.00
2022-10-26T20:36:50.132Z,100.00
2022-10-26T20:39:52.396Z,100.00
2022-10-26T20:42:55.492Z,100.00
2022-10-26T20:45:57.699Z,100.00
2022-10-26T20:48:59.450Z,100.00
2022-10-26T20:52:21.086Z,100.00
2022-10-26T20:56:01.525Z,100.00
2022-10-26T20:59:04.076Z,100.00
2022-10-26T21:02:09.997Z,100.00
2022-10-26T21:05:11.537Z,100.00
2022-10-26T21:08:13.632Z,100.00
2022-10-26T21:11:15.850Z,100.00
2022-10-26T21:14:17.401Z,100.00
2022-10-26T21:17:19.181Z,100.00
2022-10-26T21:20:20.713Z,100.00
2022-10-26T21:23:22.205Z,100.00
2022-10-26T21:26:23.722Z,100.00
2022-10-26T21:29:25.277Z,100.00
2022-10-26T21:32:26.803Z,100.00
2022-10-26T21:35:28.329Z,100.00
2022-10-26T21:38:31.166Z,100.00
2022-10-26T21:41:36.210Z,100.00
2022-10-26T21:44:41.793Z,100.00
2022-10-26T21:47:44.864Z,100.00
2022-10-26T21:50:46.384Z,100.00
2022-10-26T21:53:49.272Z,100.00
2022-10-26T21:56:50.773Z,100.00
2022-10-26T21:59:52.306Z,100.00
2022-10-26T22:02:53.962Z,100.00
2022-10-26T22:05:55.584Z,100.00
2022-10-26T22:08:57.101Z,100.00
2022-10-26T22:11:58.723Z,100.00
2022-10-26T22:15:00.220Z,100.00
2022-10-26T22:18:01.759Z,100.00
2022-10-26T22:21:05.080Z,100.00
2022-10-26T22:24:07.285Z,100.00
2022-10-26T22:27:08.808Z,100.00
2022-10-26T22:30:11.157Z,100.00
2022-10-26T22:33:13.250Z,100.00
2022-10-26T22:36:15.973Z,100.00
2022-10-26T22:39:18.017Z,100.00
2022-10-26T22:42:19.656Z,100.00
2022-10-26T22:45:21.301Z,100.00
2022-10-26T22:48:22.854Z,100.00
2022-10-26T22:51:27.254Z,100.00
2022-10-26T22:54:28.805Z,100.00
2022-10-26T22:57:30.366Z,100.00
2022-10-26T23:00:31.927Z,100.00
2022-10-26T23:03:34.390Z,100.00
2022-10-26T23:06:36.029Z,100.00
2022-10-26T23:09:37.581Z,100.00
2022-10-26T23:12:39.110Z,100.00
2022-10-26T23:15:40.675Z,100.00
2022-10-26T23:18:42.298Z,100.00
2022-10-26T23:21:44.128Z,100.00
2022-10-26T23:24:45.710Z,100.00
2022-10-26T23:27:47.242Z,100.00
2022-10-26T23:30:48.806Z,100.00
2022-10-26T23:33:51.311Z,100.00
2022-10-26T23:36:53.298Z,100.00
2022-10-26T23:39:54.804Z,100.00
2022-10-26T23:42:56.367Z,100.00
2022-10-26T23:45:57.984Z,100.00
2022-10-26T23:48:59.560Z,100.00
2022-10-26T23:52:01.057Z,100.00
2022-10-26T23:55:02.619Z,100.00
2022-10-26T23:58:04.834Z,100.00
